Time;durP1;ratioP1;P1;durP2;ratioP2;P2;SDS_P1;SDS_P2;PMS_P1;PMS_P2;Temp;Humidity;BMP_temperature;BMP_pressure;BME280_temperature;BME280_humidity;BME280_pressure;Samples;Min_cycle;Max_cycle;Signal;HPM_P1;HPM_P2
2021/06/20 00:00:56;;;;;;;3.08;0.65;;;11.10;99.90;;;;;;5013195;28;20076;-70
2021/06/20 00:03:22;;;;;;;0.68;0.55;;;11.00;99.90;;;;;;5012070;28;20084;-70
2021/06/20 00:05:54;;;;;;;0.57;0.57;;;11.00;99.90;;;;;;5013494;28;20027;-70
2021/06/20 00:08:20;;;;;;;0.52;0.50;;;10.90;99.90;;;;;;5013273;28;20367;-70
2021/06/20 00:10:48;;;;;;;0.50;0.50;;;10.90;99.90;;;;;;5013393;28;20022;-70
2021/06/20 00:13:15;;;;;;;1.40;0.75;;;10.90;99.90;;;;;;5011944;28;20429;-70
2021/06/20 00:15:42;;;;;;;0.85;0.80;;;10.90;99.90;;;;;;5013465;28;20084;-70
2021/06/20 00:18:08;;;;;;;0.88;0.70;;;10.90;99.90;;;;;;5013091;28;20040;-70
2021/06/20 00:20:40;;;;;;;1.65;0.68;;;10.90;99.90;;;;;;5013245;28;20022;-70
2021/06/20 00:23:06;;;;;;;1.63;0.80;;;10.90;99.90;;;;;;5013227;28;20041;-70
2021/06/20 00:25:33;;;;;;;1.75;0.90;;;11.00;99.90;;;;;;5013304;28;20045;-70
2021/06/20 00:27:59;;;;;;;0.73;0.73;;;11.00;99.90;;;;;;5012904;28;20083;-70
2021/06/20 00:30:28;;;;;;;1.13;0.80;;;11.00;99.90;;;;;;5012892;28;20473;-70
2021/06/20 00:32:54;;;;;;;0.95;0.80;;;11.00;99.90;;;;;;5012848;28;20018;-70
2021/06/20 00:35:20;;;;;;;4.75;0.95;;;11.00;99.90;;;;;;5012989;28;20492;-70
2021/06/20 00:37:46;;;;;;;1.52;1.15;;;11.00;99.90;;;;;;5012606;28;20018;-70
2021/06/20 00:40:13;;;;;;;1.15;0.88;;;11.00;99.90;;;;;;5012891;28;20108;-70
2021/06/20 00:42:39;;;;;;;1.90;1.00;;;11.00;99.90;;;;;;5012451;28;20489;-70
2021/06/20 00:45:06;;;;;;;2.35;0.85;;;11.10;99.90;;;;;;5012766;28;20036;-70
2021/06/20 00:47:32;;;;;;;1.02;0.95;;;11.10;99.90;;;;;;5012470;28;20022;-70
2021/06/20 00:49:58;;;;;;;3.88;1.00;;;11.10;99.90;;;;;;5012518;28;20422;-70
2021/06/20 00:52:24;;;;;;;1.15;0.80;;;11.10;99.90;;;;;;5012316;28;20034;-70
2021/06/20 00:54:49;;;;;;;2.35;0.80;;;11.10;99.90;;;;;;5012678;28;20037;-70
2021/06/20 00:57:18;;;;;;;2.38;0.85;;;11.10;99.90;;;;;;5012477;28;20025;-70
2021/06/20 00:59:44;;;;;;;1.75;0.90;;;11.10;99.90;;;;;;5012457;28;20022;-70
2021/06/20 01:02:14;;;;;;;3.50;0.82;;;11.10;99.90;;;;;;5012345;28;20026;-70
2021/06/20 01:04:46;;;;;;;1.92;1.00;;;11.10;99.90;;;;;;5012781;28;20026;-70
2021/06/20 01:07:20;;;;;;;1.85;0.90;;;11.10;99.90;;;;;;5012161;28;20069;-70
2021/06/20 01:09:47;;;;;;;1.15;0.90;;;11.10;99.90;;;;;;5012231;28;20025;-70
2021/06/20 01:12:14;;;;;;;1.08;0.98;;;11.10;99.90;;;;;;5012323;28;20494;-70
2021/06/20 01:14:40;;;;;;;0.90;0.90;;;11.10;99.90;;;;;;5010918;28;20038;-70
2021/06/20 01:17:07;;;;;;;1.20;0.90;;;11.10;99.90;;;;;;5012523;28;20030;-70
2021/06/20 01:53:14;;;;;;;0.95;0.85;;;11.10;99.90;;;;;;5401126;22;20468;-69
2021/06/20 01:55:42;;;;;;;1.00;0.77;;;11.20;99.90;;;;;;5012016;28;20025;-69
2021/06/20 01:58:12;;;;;;;1.52;0.77;;;11.10;99.90;;;;;;5013072;28;20026;-69
2021/06/20 02:00:42;;;;;;;1.47;0.77;;;11.10;99.90;;;;;;5016014;28;20032;-70
2021/06/20 02:03:13;;;;;;;1.65;0.90;;;11.10;99.90;;;;;;5015558;28;20038;-70
2021/06/20 02:05:40;;;;;;;0.70;0.70;;;11.10;99.90;;;;;;5015800;28;20432;-70
2021/06/20 02:08:06;;;;;;;1.08;0.80;;;11.10;99.90;;;;;;5015801;28;20072;-70
2021/06/20 02:10:32;;;;;;;1.33;0.90;;;11.10;99.90;;;;;;4997822;28;20018;-70
2021/06/20 02:12:58;;;;;;;3.05;0.90;;;11.10;99.90;;;;;;5015386;28;20470;-70
2021/06/20 02:15:24;;;;;;;1.63;1.00;;;11.10;99.90;;;;;;5015491;28;20397;-70
2021/06/20 02:17:50;;;;;;;1.77;1.05;;;11.10;99.90;;;;;;5015651;28;20492;-70
2021/06/20 02:20:20;;;;;;;1.50;0.90;;;11.10;99.90;;;;;;5015264;28;20038;-70
2021/06/20 02:22:48;;;;;;;1.88;0.90;;;11.00;99.90;;;;;;5015442;28;20121;-70
2021/06/20 02:25:15;;;;;;;0.73;0.73;;;11.10;99.90;;;;;;4998167;28;20393;-70
2021/06/20 02:27:43;;;;;;;1.35;0.90;;;11.10;99.90;;;;;;5015237;28;20018;-70
2021/06/20 02:30:10;;;;;;;3.08;0.85;;;11.10;99.90;;;;;;4997624;28;20032;-70
2021/06/20 02:32:37;;;;;;;0.95;0.73;;;11.10;99.90;;;;;;4997404;28;20432;-70
2021/06/20 02:35:05;;;;;;;3.28;0.80;;;11.10;99.90;;;;;;5015162;28;20028;-70
2021/06/20 02:37:32;;;;;;;0.80;0.80;;;11.10;99.90;;;;;;5014881;28;20025;-70
2021/06/20 02:39:58;;;;;;;1.02;0.80;;;11.10;99.90;;;;;;5015035;28;20396;-70
2021/06/20 02:42:24;;;;;;;1.20;0.85;;;11.10;99.90;;;;;;5014769;28;20037;-70
2021/06/20 02:44:50;;;;;;;1.90;1.10;;;11.10;99.90;;;;;;5014943;28;20029;-70
2021/06/20 02:47:16;;;;;;;1.17;0.90;;;11.10;99.90;;;;;;4997200;28;20025;-70
2021/06/20 02:49:42;;;;;;;4.18;0.90;;;11.20;99.90;;;;;;5014807;28;20014;-70
2021/06/20 02:52:10;;;;;;;2.38;0.90;;;11.20;99.90;;;;;;5014571;28;20116;-70
2021/06/20 02:54:37;;;;;;;1.25;1.10;;;11.20;99.90;;;;;;5014608;28;20096;-70
2021/06/20 02:57:04;;;;;;;1.02;0.90;;;11.20;99.90;;;;;;5014802;28;20030;-70
2021/06/20 02:59:30;;;;;;;2.03;0.90;;;11.20;99.90;;;;;;5014449;28;20488;-70
2021/06/20 03:01:55;;;;;;;1.02;1.00;;;11.20;99.90;;;;;;5014546;28;20048;-70
2021/06/20 03:04:21;;;;;;;0.73;0.60;;;11.20;99.90;;;;;;5014353;28;20026;-70
2021/06/20 03:06:47;;;;;;;1.25;0.80;;;11.20;99.90;;;;;;5014601;28;20473;-70
2021/06/20 03:09:13;;;;;;;1.35;1.13;;;11.20;99.90;;;;;;5014269;28;20030;-70
2021/06/20 03:11:42;;;;;;;1.70;0.70;;;11.20;99.90;;;;;;5014529;28;20018;-70
2021/06/20 03:14:13;;;;;;;1.10;1.00;;;11.20;99.90;;;;;;5014199;28;20030;-70
2021/06/20 03:16:39;;;;;;;1.52;0.80;;;11.20;99.90;;;;;;5014418;28;20030;-70
2021/06/20 03:19:05;;;;;;;2.10;0.98;;;11.20;99.90;;;;;;5014199;28;20026;-70
2021/06/20 03:21:31;;;;;;;1.55;1.10;;;11.20;99.90;;;;;;5014033;28;20034;-70
2021/06/20 03:23:57;;;;;;;0.88;0.80;;;11.10;99.90;;;;;;5014107;28;20030;-70
2021/06/20 03:26:23;;;;;;;1.85;0.82;;;11.20;99.90;;;;;;5014643;28;20301;-70
2021/06/20 03:28:49;;;;;;;1.33;1.00;;;11.20;99.90;;;;;;5014361;28;20030;-70
2021/06/20 03:31:17;;;;;;;1.42;0.90;;;11.20;99.90;;;;;;5013951;28;20053;-70
2021/06/20 03:33:44;;;;;;;1.60;0.95;;;11.20;99.90;;;;;;5014213;28;20061;-70
2021/06/20 03:36:10;;;;;;;0.90;0.85;;;11.20;99.90;;;;;;5014297;28;20030;-70
2021/06/20 03:38:36;;;;;;;1.20;1.00;;;11.30;99.90;;;;;;5013699;28;20018;-70
2021/06/20 03:41:02;;;;;;;1.52;0.90;;;11.30;99.90;;;;;;5013885;28;20386;-70
2021/06/20 03:43:27;;;;;;;0.80;0.80;;;11.30;99.90;;;;;;5013531;28;20065;-70
2021/06/20 03:45:53;;;;;;;1.90;1.00;;;11.20;99.90;;;;;;5013808;28;20076;-70
2021/06/20 03:48:19;;;;;;;1.55;1.00;;;11.30;99.90;;;;;;5013785;28;20109;-70
2021/06/20 03:50:45;;;;;;;0.80;0.80;;;11.30;99.90;;;;;;5014122;28;20487;-70
2021/06/20 03:53:11;;;;;;;2.72;0.90;;;11.30;99.90;;;;;;5013598;28;20108;-70
2021/06/20 03:55:38;;;;;;;0.98;0.90;;;11.30;99.90;;;;;;5013549;28;20091;-70
2021/06/20 03:58:06;;;;;;;2.17;0.80;;;11.30;99.90;;;;;;5013565;28;20017;-70
2021/06/20 04:00:33;;;;;;;1.70;1.00;;;11.30;99.90;;;;;;5013715;28;20030;-70
2021/06/20 04:02:59;;;;;;;1.23;0.90;;;11.30;99.90;;;;;;5013333;28;20030;-70
2021/06/20 04:05:25;;;;;;;0.95;0.70;;;11.30;99.90;;;;;;5013589;28;20049;-70
2021/06/20 04:07:50;;;;;;;1.50;0.93;;;11.30;99.90;;;;;;5013904;28;20438;-70
2021/06/20 04:10:16;;;;;;;4.30;0.85;;;11.30;99.90;;;;;;5013311;28;20037;-70
2021/06/20 04:12:42;;;;;;;1.05;0.90;;;11.30;99.90;;;;;;4995691;28;20053;-70
2021/06/20 04:15:08;;;;;;;1.30;0.88;;;11.30;99.90;;;;;;5013501;28;20026;-70
2021/06/20 04:17:35;;;;;;;1.02;0.95;;;11.30;99.90;;;;;;5013079;28;20437;-70
2021/06/20 04:20:07;;;;;;;1.38;0.90;;;11.30;99.90;;;;;;5013065;28;20017;-70
2021/06/20 04:22:33;;;;;;;1.20;1.10;;;11.40;99.90;;;;;;4995010;28;20044;-70
2021/06/20 04:24:58;;;;;;;1.42;0.85;;;11.30;99.90;;;;;;5013135;28;20081;-70
2021/06/20 04:27:24;;;;;;;0.68;0.68;;;11.40;99.90;;;;;;5012939;28;20041;-70
2021/06/20 04:29:50;;;;;;;5.10;0.88;;;11.40;99.90;;;;;;5012987;28;20054;-70
2021/06/20 04:32:16;;;;;;;1.17;1.00;;;11.40;99.90;;;;;;5012940;28;20489;-70
2021/06/20 04:34:41;;;;;;;2.47;0.90;;;11.40;99.90;;;;;;5012718;28;20018;-70
2021/06/20 04:37:07;;;;;;;1.42;1.00;;;11.40;99.90;;;;;;5013186;28;20021;-70
2021/06/20 04:39:33;;;;;;;1.20;0.80;;;11.40;99.90;;;;;;5012492;28;20080;-70
2021/06/20 04:41:59;;;;;;;1.55;0.90;;;11.40;99.90;;;;;;5013053;28;20037;-70
2021/06/20 04:44:43;;;;;;;2.38;1.00;;;11.40;99.90;;;;;;4994883;28;20397;-70
2021/06/20 04:47:13;;;;;;;0.80;0.80;;;11.40;99.90;;;;;;5013073;28;20037;-70
2021/06/20 04:49:39;;;;;;;2.33;0.90;;;11.40;99.90;;;;;;5012375;28;20509;-70
2021/06/20 04:52:09;;;;;;;1.35;0.82;;;11.40;99.90;;;;;;4994782;28;20038;-70
2021/06/20 04:54:36;;;;;;;1.52;0.90;;;11.40;99.90;;;;;;5012676;28;20035;-70
2021/06/20 04:57:07;;;;;;;1.33;0.90;;;11.40;99.90;;;;;;5012895;28;20378;-70
2021/06/20 04:59:33;;;;;;;2.70;0.95;;;11.40;99.90;;;;;;5012389;28;20075;-70
2021/06/20 05:01:59;;;;;;;2.33;0.95;;;11.40;99.90;;;;;;5012396;28;20034;-70
2021/06/20 05:04:25;;;;;;;1.15;0.85;;;11.40;99.90;;;;;;4994628;28;20029;-70
2021/06/20 05:06:51;;;;;;;5.35;1.45;;;11.40;99.90;;;;;;5012481;28;20358;-70
2021/06/20 05:09:17;;;;;;;1.23;1.10;;;11.40;99.90;;;;;;5012587;28;20433;-70
2021/06/20 05:11:43;;;;;;;2.05;1.00;;;11.40;99.90;;;;;;5012861;28;20213;-70
2021/06/20 05:14:08;;;;;;;2.25;0.90;;;11.40;99.90;;;;;;4994583;28;20040;-70
2021/06/20 05:16:34;;;;;;;2.15;1.10;;;11.40;99.90;;;;;;4994547;28;20503;-70
2021/06/20 05:19:00;;;;;;;1.25;1.10;;;11.30;99.90;;;;;;5012264;28;20026;-70
2021/06/20 05:21:33;;;;;;;3.30;1.20;;;11.40;99.90;;;;;;5012102;28;20038;-70
2021/06/20 05:23:58;;;;;;;1.15;1.05;;;11.40;99.90;;;;;;5012464;28;20113;-70
2021/06/20 05:26:24;;;;;;;0.90;0.75;;;11.40;99.90;;;;;;5012168;28;20109;-70
2021/06/20 05:28:50;;;;;;;1.10;1.00;;;11.40;99.90;;;;;;4994506;28;20037;-70
2021/06/20 05:31:16;;;;;;;1.88;0.88;;;11.40;99.90;;;;;;4994637;28;20022;-70
2021/06/20 05:33:41;;;;;;;1.63;1.10;;;11.40;99.90;;;;;;5014229;28;20270;-70
2021/06/20 05:36:07;;;;;;;1.67;1.00;;;11.40;99.90;;;;;;5016233;28;20030;-70
2021/06/20 05:38:33;;;;;;;1.33;1.15;;;11.40;99.90;;;;;;5016053;28;20018;-70
2021/06/20 05:40:59;;;;;;;1.27;1.00;;;11.40;99.90;;;;;;5016206;28;20025;-70
2021/06/20 05:43:25;;;;;;;1.48;0.80;;;11.50;99.90;;;;;;5016128;28;20042;-70
2021/06/20 05:45:51;;;;;;;1.13;0.95;;;11.50;99.90;;;;;;5016099;28;20125;-70
2021/06/20 05:48:17;;;;;;;1.77;1.10;;;11.40;99.90;;;;;;5016020;28;20108;-70
2021/06/20 05:50:43;;;;;;;0.80;0.80;;;11.40;99.90;;;;;;5015860;28;20100;-70
2021/06/20 05:53:08;;;;;;;0.93;0.90;;;11.40;99.90;;;;;;5015879;28;20046;-70
2021/06/20 05:55:34;;;;;;;1.20;1.10;;;11.50;99.90;;;;;;5015874;28;20030;-70
2021/06/20 05:58:00;;;;;;;0.80;0.80;;;11.50;99.90;;;;;;5015956;28;20359;-70
2021/06/20 06:00:26;;;;;;;0.85;0.80;;;11.50;99.90;;;;;;5015642;28;20026;-70
2021/06/20 06:02:51;;;;;;;1.35;1.02;;;11.50;99.90;;;;;;5015861;28;20037;-70
2021/06/20 06:05:17;;;;;;;1.83;0.90;;;11.50;99.90;;;;;;5015544;28;20473;-70
2021/06/20 06:07:44;;;;;;;1.52;1.10;;;11.50;99.90;;;;;;5015510;28;20034;-70
2021/06/20 06:10:11;;;;;;;0.75;0.75;;;11.50;99.90;;;;;;5015482;28;20026;-70
2021/06/20 06:12:36;;;;;;;1.20;1.00;;;11.50;99.90;;;;;;5015452;28;20030;-70
2021/06/20 06:15:03;;;;;;;1.20;0.90;;;11.50;99.90;;;;;;4997875;28;20065;-70
2021/06/20 06:17:29;;;;;;;1.63;0.90;;;11.50;99.90;;;;;;5015289;28;20178;-70
2021/06/20 06:19:55;;;;;;;1.33;0.90;;;11.60;99.90;;;;;;5015710;28;20571;-70
2021/06/20 06:22:21;;;;;;;2.20;1.02;;;11.60;99.90;;;;;;5015257;28;20030;-70
2021/06/20 06:24:48;;;;;;;1.20;1.10;;;11.60;99.90;;;;;;5015212;28;20030;-70
2021/06/20 06:27:15;;;;;;;0.90;0.90;;;11.70;99.90;;;;;;5015334;28;20028;-70
2021/06/20 06:29:41;;;;;;;1.48;0.90;;;11.70;99.90;;;;;;4997399;28;20125;-70
2021/06/20 06:32:08;;;;;;;1.63;1.00;;;11.80;99.90;;;;;;4997652;28;20066;-70
2021/06/20 06:34:35;;;;;;;2.17;0.80;;;11.80;99.90;;;;;;5014911;28;20473;-70
2021/06/20 06:37:02;;;;;;;1.38;0.80;;;11.80;99.90;;;;;;5015186;28;20387;-70
2021/06/20 06:39:28;;;;;;;0.80;0.80;;;11.80;99.90;;;;;;5014835;28;20037;-70
2021/06/20 06:41:55;;;;;;;1.10;1.00;;;11.90;99.90;;;;;;5015012;28;20061;-70
2021/06/20 06:44:21;;;;;;;1.40;0.88;;;11.90;99.90;;;;;;5014576;28;20030;-70
2021/06/20 06:46:48;;;;;;;1.00;0.90;;;11.90;99.90;;;;;;5015093;28;20038;-70
2021/06/20 06:49:13;;;;;;;0.88;0.85;;;11.90;99.90;;;;;;5014909;28;20355;-70
2021/06/20 06:51:39;;;;;;;0.77;0.77;;;11.90;99.90;;;;;;5014854;28;20025;-70
2021/06/20 06:54:05;;;;;;;1.00;0.80;;;11.90;99.90;;;;;;4997009;28;20072;-70
2021/06/20 06:56:31;;;;;;;0.73;0.73;;;11.90;99.90;;;;;;4997049;28;20029;-70
2021/06/20 06:58:57;;;;;;;0.75;0.75;;;11.90;99.90;;;;;;5014610;28;20030;-70
2021/06/20 07:01:23;;;;;;;2.13;0.85;;;12.00;99.90;;;;;;5014476;28;20076;-70
2021/06/20 07:03:49;;;;;;;0.82;0.82;;;12.00;99.90;;;;;;5014409;28;20077;-70
2021/06/20 07:06:14;;;;;;;2.20;0.88;;;12.00;99.90;;;;;;5014526;28;20018;-70
2021/06/20 07:08:40;;;;;;;0.98;0.85;;;12.00;99.90;;;;;;5014549;28;20041;-70
2021/06/20 07:11:06;;;;;;;1.00;0.90;;;12.00;99.90;;;;;;5014390;28;20100;-70
2021/06/20 07:13:32;;;;;;;1.55;0.70;;;12.00;99.90;;;;;;5014274;28;20029;-70
2021/06/20 07:15:58;;;;;;;1.02;0.80;;;12.10;99.90;;;;;;5014288;28;20097;-70
2021/06/20 07:18:25;;;;;;;1.05;0.80;;;12.10;99.90;;;;;;5014194;28;20478;-70
2021/06/20 07:20:51;;;;;;;1.23;0.80;;;12.10;99.90;;;;;;5014315;28;20101;-70
2021/06/20 07:23:17;;;;;;;0.90;0.90;;;12.10;99.90;;;;;;5014147;28;20146;-70
2021/06/20 07:25:43;;;;;;;1.05;0.90;;;12.20;99.90;;;;;;5013879;28;20024;-70
2021/06/20 07:28:09;;;;;;;0.95;0.90;;;12.20;99.90;;;;;;5014328;28;20305;-70
2021/06/20 07:30:34;;;;;;;0.70;0.70;;;12.20;99.90;;;;;;5013944;28;20022;-70
2021/06/20 07:33:00;;;;;;;0.88;0.80;;;12.20;99.90;;;;;;5014072;28;20030;-70
2021/06/20 07:35:26;;;;;;;1.00;0.90;;;12.20;99.90;;;;;;5013935;28;20420;-70
2021/06/20 07:37:52;;;;;;;1.20;0.80;;;12.30;99.90;;;;;;5014026;28;20053;-70
2021/06/20 07:40:19;;;;;;;0.98;0.98;;;12.30;99.90;;;;;;5014060;28;20079;-70
2021/06/20 07:42:45;;;;;;;2.28;0.90;;;12.40;99.90;;;;;;5013854;28;20133;-70
2021/06/20 07:45:13;;;;;;;1.60;1.00;;;12.50;99.90;;;;;;5014095;28;20033;-70
2021/06/20 07:47:38;;;;;;;2.38;1.00;;;12.50;99.90;;;;;;5013649;28;20477;-70
2021/06/20 07:50:10;;;;;;;0.90;0.80;;;12.50;99.90;;;;;;4996338;28;20033;-70
2021/06/20 07:52:37;;;;;;;0.85;0.80;;;12.60;99.90;;;;;;5013184;28;20057;-70
2021/06/20 07:55:04;;;;;;;0.73;0.60;;;12.60;99.90;;;;;;5013372;28;20030;-70
2021/06/20 07:57:29;;;;;;;1.75;0.73;;;12.60;99.90;;;;;;5013095;28;20537;-70
2021/06/20 07:59:55;;;;;;;1.08;0.80;;;12.60;99.90;;;;;;5013513;28;20029;-70
2021/06/20 08:02:21;;;;;;;2.08;1.00;;;12.60;99.90;;;;;;5013436;28;20038;-70
2021/06/20 08:04:47;;;;;;;0.80;0.80;;;12.60;99.90;;;;;;4995679;28;20029;-70
2021/06/20 08:07:13;;;;;;;1.10;0.90;;;12.60;99.90;;;;;;5013774;28;20034;-70
2021/06/20 08:09:39;;;;;;;1.20;0.93;;;12.60;99.90;;;;;;5013193;28;20018;-70
2021/06/20 08:12:07;;;;;;;1.13;1.00;;;12.70;99.90;;;;;;5013360;28;20018;-70
2021/06/20 08:14:33;;;;;;;1.05;0.80;;;12.70;99.90;;;;;;5013049;28;20100;-70
2021/06/20 08:16:59;;;;;;;1.17;1.10;;;12.70;99.90;;;;;;5013271;28;20034;-71
2021/06/20 08:19:25;;;;;;;1.10;1.00;;;12.70;99.90;;;;;;5013381;28;20025;-70
2021/06/20 08:21:51;;;;;;;1.20;1.02;;;12.80;99.90;;;;;;5013317;28;20473;-70
2021/06/20 08:24:16;;;;;;;1.45;1.20;;;12.80;99.90;;;;;;5013051;28;20088;-70
2021/06/20 08:26:45;;;;;;;1.50;1.10;;;12.90;99.90;;;;;;5013145;28;20030;-70
2021/06/20 08:29:11;;;;;;;1.10;1.00;;;12.90;99.90;;;;;;5013210;28;20187;-70
2021/06/20 08:31:37;;;;;;;1.20;1.10;;;12.90;99.90;;;;;;5013197;28;20028;-70
2021/06/20 08:34:02;;;;;;;1.17;1.08;;;13.00;99.90;;;;;;5012977;28;20104;-70
2021/06/20 08:36:28;;;;;;;1.35;1.00;;;13.00;99.90;;;;;;5012875;28;20018;-70
2021/06/20 08:38:54;;;;;;;1.27;1.00;;;13.00;99.90;;;;;;5012602;28;20018;-70
2021/06/20 08:41:22;;;;;;;0.80;0.80;;;13.00;99.90;;;;;;5012645;28;20084;-70
2021/06/20 08:43:51;;;;;;;1.05;0.85;;;13.10;99.90;;;;;;5012495;28;20155;-70
2021/06/20 08:46:17;;;;;;;1.20;0.90;;;13.10;99.90;;;;;;5012802;28;20025;-70
2021/06/20 08:48:44;;;;;;;1.88;1.00;;;13.10;99.90;;;;;;5012388;28;20056;-70
2021/06/20 08:51:09;;;;;;;1.25;0.93;;;13.10;99.90;;;;;;4995043;28;20018;-70
2021/06/20 08:53:35;;;;;;;1.45;0.93;;;13.20;99.90;;;;;;4994525;28;20533;-70
2021/06/20 08:56:02;;;;;;;3.05;1.00;;;13.20;99.90;;;;;;5012436;28;20026;-70
2021/06/20 08:58:33;;;;;;;1.17;1.00;;;13.30;99.90;;;;;;5012556;28;20061;-70
2021/06/20 09:01:00;;;;;;;1.98;0.90;;;13.30;99.90;;;;;;5012508;28;20018;-70
2021/06/20 09:03:45;;;;;;;2.00;1.20;;;13.40;99.90;;;;;;4994733;28;20477;-70
2021/06/20 09:06:21;;;;;;;1.42;0.90;;;13.50;99.90;;;;;;5012739;28;20115;-70
2021/06/20 09:08:55;;;;;;;4.57;1.13;;;13.50;99.90;;;;;;5012314;28;20033;-70
2021/06/20 09:11:33;;;;;;;1.20;1.10;;;13.60;99.90;;;;;;5012690;28;20022;-70
2021/06/20 09:14:08;;;;;;;1.73;1.10;;;13.70;99.90;;;;;;5011982;28;20037;-70
2021/06/20 09:16:56;;;;;;;2.22;1.20;;;13.80;99.90;;;;;;5012004;28;20452;-70
2021/06/20 09:19:35;;;;;;;1.08;1.00;;;14.00;99.90;;;;;;5012257;28;20018;-70
2021/06/20 09:22:06;;;;;;;2.97;1.00;;;14.10;99.90;;;;;;5012015;28;20393;-70
2021/06/20 09:24:32;;;;;;;3.17;1.15;;;14.20;99.90;;;;;;5012155;28;20037;-70
2021/06/20 09:26:59;;;;;;;1.95;1.27;;;14.40;99.90;;;;;;5012240;28;20030;-70
2021/06/20 09:29:35;;;;;;;1.67;1.20;;;14.50;99.90;;;;;;5012254;28;20041;-70
2021/06/20 09:32:04;;;;;;;6.38;1.20;;;14.50;99.90;;;;;;5012229;28;20022;-70
2021/06/20 09:34:59;;;;;;;2.22;1.10;;;14.60;99.90;;;;;;5011971;28;20018;-70
2021/06/20 09:37:27;;;;;;;2.25;1.02;;;14.70;99.90;;;;;;5012114;28;20026;-70
2021/06/20 09:39:52;;;;;;;3.63;1.10;;;14.90;99.90;;;;;;5011865;28;20323;-70
2021/06/20 09:42:18;;;;;;;3.53;0.90;;;14.90;99.90;;;;;;5011919;28;20030;-70
2021/06/20 09:44:49;;;;;;;1.77;1.10;;;15.00;99.90;;;;;;4994233;28;20041;-70
2021/06/20 09:47:18;;;;;;;1.38;0.90;;;15.10;99.90;;;;;;5012035;28;20488;-70
2021/06/20 09:49:47;;;;;;;2.50;1.10;;;15.10;99.90;;;;;;5011627;28;20386;-70
2021/06/20 09:52:13;;;;;;;1.73;1.00;;;15.10;99.90;;;;;;5011671;28;20381;-70
2021/06/20 09:54:54;;;;;;;3.45;1.27;;;15.10;99.90;;;;;;5012234;28;20335;-70
2021/06/20 09:57:21;;;;;;;1.75;1.00;;;15.10;99.90;;;;;;5011898;28;20097;-70
2021/06/20 10:00:00;;;;;;;2.20;1.00;;;15.10;99.90;;;;;;5011707;28;20022;-70
2021/06/20 10:02:38;;;;;;;2.03;0.90;;;15.10;99.90;;;;;;5011760;28;20037;-71
2021/06/20 10:05:05;;;;;;;2.22;1.20;;;15.10;99.90;;;;;;5011798;28;20029;-70
2021/06/20 10:07:31;;;;;;;2.60;0.95;;;15.10;99.90;;;;;;5011693;28;20424;-71
2021/06/20 10:10:00;;;;;;;2.00;0.95;;;15.10;99.90;;;;;;5011593;28;20018;-70
2021/06/20 10:12:27;;;;;;;2.78;1.20;;;15.10;99.90;;;;;;4994128;28;20033;-70
2021/06/20 10:14:55;;;;;;;2.00;1.00;;;15.20;99.90;;;;;;5011544;28;20022;-70
2021/06/20 10:17:35;;;;;;;2.38;1.10;;;15.30;99.90;;;;;;5011690;28;20029;-70
2021/06/20 10:20:05;;;;;;;1.75;1.10;;;15.30;99.90;;;;;;5014346;28;20481;-70
2021/06/20 10:22:44;;;;;;;2.97;1.20;;;15.30;99.90;;;;;;5015125;28;20034;-71
2021/06/20 10:25:22;;;;;;;1.83;0.93;;;15.20;99.90;;;;;;5015192;28;20057;-70
2021/06/20 10:28:17;;;;;;;3.30;1.23;;;15.20;99.90;;;;;;5015087;28;20430;-70
2021/06/20 10:30:45;;;;;;;4.55;1.30;;;15.20;99.90;;;;;;4997711;28;20506;-70
2021/06/20 10:33:14;;;;;;;1.33;1.08;;;15.10;99.90;;;;;;5015318;28;20032;-70
2021/06/20 10:35:41;;;;;;;3.28;1.17;;;15.20;99.90;;;;;;5014916;28;20423;-71
2021/06/20 10:38:08;;;;;;;4.72;1.15;;;15.20;99.90;;;;;;5015115;28;20029;-70
2021/06/20 10:40:35;;;;;;;2.13;1.20;;;15.30;99.90;;;;;;5015184;28;20085;-70
2021/06/20 10:43:17;;;;;;;2.28;1.25;;;15.40;99.90;;;;;;5015406;28;20066;-71
2021/06/20 10:45:43;;;;;;;2.17;1.20;;;15.40;99.90;;;;;;5014680;28;20355;-71
2021/06/20 10:48:19;;;;;;;13.77;1.45;;;15.40;99.90;;;;;;5015131;28;20049;-68
2021/06/20 10:50:51;;;;;;;0.35;0.35;;;15.60;99.90;;;;;;5014594;28;20054;-70
2021/06/20 10:53:18;;;;;;;3.03;1.48;;;15.90;99.90;;;;;;5014958;28;20100;-85
2021/06/20 10:55:53;;;;;;;3.10;0.70;;;16.30;99.90;;;;;;5014824;28;20080;-72
2021/06/20 10:58:25;;;;;;;3.28;0.52;;;16.60;99.90;;;;;;5014968;28;20022;-74
2021/06/20 11:01:04;;;;;;;4.53;0.65;;;16.80;99.90;;;;;;5014370;28;20029;-74
2021/06/20 11:03:30;;;;;;;3.65;0.40;;;16.80;99.90;;;;;;5014545;28;20029;-74
2021/06/20 11:06:10;;;;;;;4.72;0.70;;;16.90;99.90;;;;;;5014519;28;20117;-74
2021/06/20 11:08:52;;;;;;;7.43;2.25;;;17.10;98.90;;;;;;5014522;28;20021;-74
2021/06/20 11:11:24;;;;;;;15.50;2.22;;;17.10;99.90;;;;;;5014539;28;20113;-74
2021/06/20 11:13:55;;;;;;;7.10;1.33;;;17.00;99.90;;;;;;5014156;28;20565;-74
2021/06/20 11:16:28;;;;;;;3.78;0.80;;;16.90;99.90;;;;;;5014672;28;20068;-75
2021/06/20 11:19:07;;;;;;;1.15;0.68;;;16.80;99.90;;;;;;5014314;28;20057;-74
2021/06/20 11:21:35;;;;;;;1.92;0.60;;;16.60;99.90;;;;;;5014276;28;20065;-74
2021/06/20 11:24:00;;;;;;;2.80;1.23;;;16.50;99.90;;;;;;5002825;28;20031;-75
2021/06/20 11:26:26;;;;;;;2.35;0.85;;;16.30;99.90;;;;;;4994677;28;20433;-75
2021/06/20 11:29:05;;;;;;;1.95;0.80;;;16.20;99.90;;;;;;4994556;28;20026;-75
2021/06/20 11:31:31;;;;;;;3.05;0.70;;;16.20;99.90;;;;;;4993289;28;20022;-75
2021/06/20 11:33:57;;;;;;;2.42;1.40;;;16.20;99.90;;;;;;4994333;28;20030;-75
2021/06/20 11:36:27;;;;;;;5.07;1.63;;;16.10;99.90;;;;;;4994659;28;20031;-76
2021/06/20 11:38:53;;;;;;;5.90;4.55;;;16.10;99.90;;;;;;4994316;28;20018;-74
2021/06/20 11:41:23;;;;;;;8.45;2.90;;;16.10;99.90;;;;;;4994206;28;20183;-74
2021/06/20 11:43:54;;;;;;;2.45;0.73;;;16.30;99.90;;;;;;4994366;28;20058;-75
2021/06/20 11:46:22;;;;;;;4.15;2.00;;;16.30;99.90;;;;;;4994433;28;20390;-74
2021/06/20 11:48:56;;;;;;;1.52;0.63;;;16.30;99.90;;;;;;4994240;28;20030;-77
2021/06/20 11:51:31;;;;;;;2.85;0.60;;;16.30;99.90;;;;;;4994330;28;20026;-72
2021/06/20 11:54:25;;;;;;;1.10;0.70;;;16.30;99.90;;;;;;4993915;28;20050;-73
2021/06/20 11:57:05;;;;;;;2.35;0.80;;;16.20;99.90;;;;;;4994123;28;20517;-77
2021/06/20 11:59:41;;;;;;;6.68;0.88;;;16.20;99.90;;;;;;4994317;28;20042;-76
2021/06/20 12:02:12;;;;;;;2.35;0.77;;;16.20;99.90;;;;;;4994009;28;20042;-76
2021/06/20 12:04:45;;;;;;;1.77;0.70;;;16.20;99.90;;;;;;4976431;28;20027;-83
2021/06/20 12:07:12;;;;;;;4.32;1.48;;;16.20;99.90;;;;;;4994011;28;20027;-78
2021/06/20 12:09:38;;;;;;;3.40;0.73;;;16.20;99.90;;;;;;4979898;28;20041;-77
2021/06/20 12:12:09;;;;;;;4.60;1.30;;;16.30;99.90;;;;;;5013230;28;20034;-77
2021/06/20 12:14:35;;;;;;;2.60;0.73;;;16.40;99.90;;;;;;5013301;28;20561;-77
2021/06/20 12:17:01;;;;;;;1.75;0.63;;;16.50;99.90;;;;;;5013121;28;20101;-77
2021/06/20 12:19:33;;;;;;;3.03;0.80;;;16.50;99.90;;;;;;5013217;28;20045;-77
2021/06/20 12:22:13;;;;;;;4.20;0.70;;;16.60;99.90;;;;;;5012834;28;20022;-76
2021/06/20 12:24:58;;;;;;;2.58;0.68;;;16.60;99.90;;;;;;5013097;28;20110;-77
2021/06/20 12:27:33;;;;;;;4.32;0.80;;;16.60;99.90;;;;;;5013148;28;20616;-78
2021/06/20 12:30:16;;;;;;;4.70;0.98;;;16.60;99.90;;;;;;5012804;28;20125;-78
2021/06/20 12:32:43;;;;;;;3.63;0.73;;;16.60;99.90;;;;;;5013011;28;20367;-78
2021/06/20 12:35:25;;;;;;;1.67;0.98;;;16.50;99.90;;;;;;5012896;28;20026;-78
2021/06/20 12:37:52;;;;;;;4.35;1.08;;;16.40;99.90;;;;;;5012961;28;20503;-78
2021/06/20 12:40:19;;;;;;;1.60;1.00;;;16.40;99.90;;;;;;5013063;28;20385;-79
2021/06/20 12:42:47;;;;;;;3.55;1.33;;;16.30;99.90;;;;;;5012341;28;20029;-79
2021/06/20 12:45:26;;;;;;;3.65;0.90;;;16.20;99.90;;;;;;5012703;28;20018;-78
2021/06/20 12:47:55;;;;;;;11.20;1.55;;;16.20;99.90;;;;;;5012724;28;20097;-76
2021/06/20 12:50:40;;;;;;;2.92;0.93;;;16.10;99.90;;;;;;5012546;28;20381;-75
2021/06/20 12:53:06;;;;;;;2.00;1.08;;;16.10;99.90;;;;;;5012324;28;20061;-77
2021/06/20 12:55:34;;;;;;;4.18;1.02;;;16.00;99.90;;;;;;5009980;28;20360;-80
2021/06/20 12:58:05;;;;;;;2.42;0.93;;;16.00;99.90;;;;;;4993058;28;20030;-80
2021/06/20 13:00:33;;;;;;;1.67;0.90;;;16.00;99.90;;;;;;4992833;28;20050;-81
2021/06/20 13:03:02;;;;;;;7.40;1.10;;;15.90;99.90;;;;;;4992601;28;20030;-80
2021/06/20 13:05:34;;;;;;;5.05;1.08;;;15.90;99.90;;;;;;4992826;28;20498;-80
2021/06/20 13:08:04;;;;;;;1.33;0.73;;;15.90;99.90;;;;;;4992759;28;20113;-81
2021/06/20 13:10:31;;;;;;;5.32;0.85;;;15.90;99.90;;;;;;4992812;28;20050;-80
2021/06/20 13:12:57;;;;;;;1.88;1.15;;;16.00;99.90;;;;;;4992645;28;20030;-81
2021/06/20 13:15:23;;;;;;;4.57;1.83;;;16.00;99.90;;;;;;4992698;28;20091;-80
2021/06/20 13:17:49;;;;;;;2.45;1.20;;;16.10;99.90;;;;;;4992478;28;20492;-79
2021/06/20 13:20:16;;;;;;;2.03;0.77;;;16.20;99.90;;;;;;4994640;28;20038;-81
2021/06/20 13:22:43;;;;;;;3.20;0.80;;;16.20;99.90;;;;;;5007131;28;20442;-81
2021/06/20 13:25:10;;;;;;;2.03;0.80;;;16.30;99.90;;;;;;5012234;28;20022;-81